createdAt,value
2017-04-24T00:00:47.329Z,1015.31
2017-04-24T00:01:34.906Z,1015.29
2017-04-24T00:02:17.832Z,1015.29
2017-04-24T00:03:05.328Z,1015.29
2017-04-24T00:03:53.331Z,1015.31
2017-04-24T00:04:41.209Z,1015.25
2017-04-24T00:05:30.220Z,1015.26
2017-04-24T00:06:17.922Z,1015.22
2017-04-24T00:07:05.732Z,1015.23
2017-04-24T00:07:49.005Z,1015.16
2017-04-24T00:08:36.219Z,1015.19
2017-04-24T00:09:24.171Z,1015.16
2017-04-24T00:10:13.109Z,1015.16
2017-04-24T00:11:00.576Z,1015.14
2017-04-24T00:11:43.586Z,1015.11
2017-04-24T00:12:31.137Z,1015.15
2017-04-24T00:13:19.095Z,1015.18
2017-04-24T00:14:02.049Z,1015.11
2017-04-24T00:14:49.538Z,1015.15
2017-04-24T00:15:32.511Z,1015.08
2017-04-24T00:16:20.029Z,1015.05
2017-04-24T00:17:07.976Z,1015.08
2017-04-24T00:17:50.942Z,1015.08
2017-04-24T00:18:44.451Z,1015.02
2017-04-24T00:19:32.418Z,1015.08
2017-04-24T00:20:20.348Z,1015.07
2017-04-24T00:21:14.313Z,1015.03
2017-04-24T00:21:57.237Z,1015.01
2017-04-24T00:22:44.754Z,1015.01
2017-04-24T00:23:32.768Z,1015.00
2017-04-24T00:24:15.723Z,1014.99
2017-04-24T00:25:03.241Z,1014.97
2017-04-24T00:25:46.155Z,1014.92
2017-04-24T00:26:33.686Z,1014.96
2017-04-24T00:27:22.648Z,1014.92
2017-04-24T00:28:10.200Z,1014.95
2017-04-24T00:28:58.150Z,1014.92
2017-04-24T00:29:41.161Z,1014.91
2017-04-24T00:30:28.589Z,1014.85
2017-04-24T00:31:16.568Z,1014.85
2017-04-24T00:32:10.525Z,1014.83
2017-04-24T00:33:10.449Z,1014.84
2017-04-24T00:34:05.407Z,1014.85
2017-04-24T00:35:04.920Z,1014.85
2017-04-24T00:35:58.863Z,1014.80
2017-04-24T00:36:58.803Z,1014.80
2017-04-24T00:37:53.766Z,1014.78
2017-04-24T00:38:53.259Z,1014.81
2017-04-24T00:39:47.281Z,1014.78
2017-04-24T00:40:47.138Z,1014.80
2017-04-24T00:41:41.100Z,1014.79
2017-04-24T00:42:35.045Z,1014.81
2017-04-24T00:43:35.008Z,1014.80
2017-04-24T00:44:40.937Z,1014.82
2017-04-24T00:45:35.884Z,1014.77
2017-04-24T00:46:30.569Z,1014.78
2017-04-24T00:47:24.913Z,1014.73
2017-04-24T00:48:24.874Z,1014.71
2017-04-24T00:49:18.359Z,1014.71
2017-04-24T00:50:19.336Z,1014.71
2017-04-24T00:51:12.823Z,1014.68
2017-04-24T00:52:12.871Z,1014.69
2017-04-24T00:53:06.738Z,1014.66
2017-04-24T00:54:06.652Z,1014.69
2017-04-24T00:55:01.599Z,1014.64
2017-04-24T00:55:56.117Z,1014.67
2017-04-24T00:56:55.615Z,1014.64
2017-04-24T00:57:49.629Z,1014.61
2017-04-24T00:58:49.585Z,1014.61
2017-04-24T00:59:43.512Z,1014.59
2017-04-24T01:00:43.430Z,1014.64
2017-04-24T01:01:43.380Z,1014.55
2017-04-24T01:02:43.370Z,1014.51
2017-04-24T01:03:37.266Z,1014.50
2017-04-24T01:04:32.269Z,1014.48
2017-04-24T01:05:25.754Z,1014.46
2017-04-24T01:06:20.645Z,1014.46
2017-04-24T01:07:20.152Z,1014.44
2017-04-24T01:08:14.148Z,1014.44
2017-04-24T01:09:08.173Z,1014.44
2017-04-24T01:10:08.056Z,1014.43
2017-04-24T01:11:02.972Z,1014.44
2017-04-24T01:11:57.525Z,1014.43
2017-04-24T01:12:51.999Z,1014.47
2017-04-24T01:13:51.542Z,1014.38
2017-04-24T01:14:45.478Z,1014.36
2017-04-24T01:15:45.424Z,1014.34
2017-04-24T01:16:40.318Z,1014.34
2017-04-24T01:17:39.882Z,1014.34
2017-04-24T01:18:34.842Z,1014.31
2017-04-24T01:19:29.339Z,1014.32
2017-04-24T01:20:28.931Z,1014.30
2017-04-24T01:21:22.845Z,1014.30
2017-04-24T01:22:22.742Z,1014.29
2017-04-24T01:23:16.654Z,1014.31
2017-04-24T01:24:10.628Z,1014.26
2017-04-24T01:24:59.577Z,1014.27
2017-04-24T01:25:54.101Z,1014.21
2017-04-24T01:26:53.613Z,1014.25
2017-04-24T01:27:53.572Z,1014.23
2017-04-24T01:28:48.532Z,1014.22
2017-04-24T01:29:54.020Z,1014.21
2017-04-24T01:30:47.977Z,1014.16
2017-04-24T01:31:47.890Z,1014.19
2017-04-24T01:32:41.852Z,1014.15
2017-04-24T01:33:41.779Z,1014.13
2017-04-24T01:34:35.766Z,1014.12
2017-04-24T01:35:36.657Z,1014.11
2017-04-24T01:36:37.172Z,1014.12
2017-04-24T01:37:31.702Z,1014.06
2017-04-24T01:38:31.222Z,1014.02
2017-04-24T01:39:31.145Z,1014.05
2017-04-24T01:40:26.545Z,1014.02
2017-04-24T01:41:20.648Z,1013.98
2017-04-24T01:42:20.113Z,1013.95
2017-04-24T01:43:15.184Z,1013.94
2017-04-24T01:44:14.576Z,1013.94
2017-04-24T01:45:14.547Z,1013.92
2017-04-24T01:46:09.426Z,1013.94
2017-04-24T01:47:09.010Z,1013.90
2017-04-24T01:47:57.960Z,1013.90
2017-04-24T01:48:57.485Z,1013.87
2017-04-24T01:49:57.372Z,1013.90
2017-04-24T01:50:52.331Z,1013.84
2017-04-24T01:51:57.855Z,1013.87
2017-04-24T01:52:51.765Z,1013.89
2017-04-24T01:53:46.734Z,1013.82
2017-04-24T01:54:46.452Z,1013.81
2017-04-24T01:55:35.137Z,1013.81
2017-04-24T01:56:34.736Z,1013.85
2017-04-24T01:57:34.618Z,1013.82
2017-04-24T01:58:34.618Z,1013.83
2017-04-24T01:59:23.572Z,1013.79
2017-04-24T02:00:23.068Z,1013.77
2017-04-24T02:01:23.013Z,1013.75
2017-04-24T02:02:17.959Z,1013.71
2017-04-24T02:03:17.469Z,1013.67
2017-04-24T02:04:05.460Z,1013.67
2017-04-24T02:04:59.353Z,1013.63
2017-04-24T02:05:48.320Z,1013.64
2017-04-24T02:06:47.833Z,1013.59
2017-04-24T02:07:41.788Z,1013.60
2017-04-24T02:08:36.717Z,1013.60
2017-04-24T02:09:36.267Z,1013.59
2017-04-24T02:10:31.154Z,1013.61
2017-04-24T02:11:36.694Z,1013.56
2017-04-24T02:12:30.636Z,1013.56
2017-04-24T02:13:19.629Z,1013.53
2017-04-24T02:14:19.070Z,1013.50
2017-04-24T02:15:13.018Z,1013.51
2017-04-24T02:16:13.009Z,1013.48
2017-04-24T02:17:06.944Z,1013.51
2017-04-24T02:18:00.861Z,1013.48
2017-04-24T02:19:00.853Z,1013.46
2017-04-24T02:20:00.764Z,1013.44
2017-04-24T02:20:55.724Z,1013.45
2017-04-24T02:22:01.221Z,1013.43
2017-04-24T02:22:56.146Z,1013.45
2017-04-24T02:23:55.655Z,1013.48
2017-04-24T02:24:49.620Z,1013.42
2017-04-24T02:25:49.548Z,1013.40
2017-04-24T02:26:43.529Z,1013.38
2017-04-24T02:27:37.459Z,1013.34
2017-04-24T02:28:20.428Z,1013.35
2017-04-24T02:29:19.944Z,1013.31
2017-04-24T02:30:14.872Z,1013.33
2017-04-24T02:31:09.317Z,1013.31
2017-04-24T02:32:03.932Z,1013.32
2017-04-24T02:32:58.439Z,1013.27
2017-04-24T02:33:57.917Z,1013.28
2017-04-24T02:34:52.828Z,1013.27
2017-04-24T02:35:52.355Z,1013.25
2017-04-24T02:36:52.328Z,1013.26
2017-04-24T02:37:46.243Z,1013.24
2017-04-24T02:38:46.317Z,1013.23
2017-04-24T02:39:46.193Z,1013.23
2017-04-24T02:40:46.081Z,1013.26
2017-04-24T02:41:41.049Z,1013.29
2017-04-24T02:42:40.583Z,1013.28
2017-04-24T02:43:34.523Z,1013.23
2017-04-24T02:44:34.417Z,1013.22
2017-04-24T02:45:28.508Z,1013.19
2017-04-24T02:46:34.775Z,1013.18
2017-04-24T02:47:28.245Z,1013.16
2017-04-24T02:48:34.238Z,1013.15
2017-04-24T02:49:28.157Z,1013.14
2017-04-24T02:50:28.126Z,1013.13
2017-04-24T02:51:22.028Z,1013.13
2017-04-24T02:52:21.974Z,1013.11
2017-04-24T02:53:16.936Z,1013.12
2017-04-24T02:54:16.468Z,1013.08
2017-04-24T02:55:10.443Z,1013.10
2017-04-24T02:56:04.921Z,1013.07
2017-04-24T02:57:05.856Z,1013.09
2017-04-24T02:58:00.430Z,1013.05
2017-04-24T02:58:54.915Z,1013.05
2017-04-24T02:59:49.410Z,1013.01
2017-04-24T03:00:48.935Z,1012.99
2017-04-24T03:01:42.854Z,1013.00
2017-04-24T03:02:30.838Z,1012.98
2017-04-24T03:03:19.813Z,1012.91
2017-04-24T03:04:07.291Z,1012.94
2017-04-24T03:04:55.324Z,1012.89
2017-04-24T03:05:44.160Z,1012.96
2017-04-24T03:06:31.723Z,1012.87
2017-04-24T03:07:14.683Z,1012.90
2017-04-24T03:08:02.189Z,1012.86
2017-04-24T03:08:50.161Z,1012.81
2017-04-24T03:09:38.093Z,1012.85
2017-04-24T03:10:27.065Z,1012.83
2017-04-24T03:11:14.563Z,1012.83
2017-04-24T03:12:02.557Z,1012.82
2017-04-24T03:12:50.493Z,1012.80
2017-04-24T03:13:38.467Z,1012.81
2017-04-24T03:14:27.421Z,1012.84
2017-04-24T03:15:14.906Z,1012.79
2017-04-24T03:16:02.876Z,1012.76
2017-04-24T03:16:51.848Z,1012.80
2017-04-24T03:17:45.318Z,1012.78
2017-04-24T03:18:40.289Z,1012.74
2017-04-24T03:19:34.818Z,1012.75
2017-04-24T03:20:34.311Z,1012.74
2017-04-24T03:21:35.683Z,1012.73
2017-04-24T03:22:34.787Z,1012.69
2017-04-24T03:23:29.752Z,1012.70
2017-04-24T03:24:29.229Z,1012.71
2017-04-24T03:25:23.183Z,1012.68
2017-04-24T03:26:18.106Z,1012.65
2017-04-24T03:27:17.608Z,1012.65
2017-04-24T03:28:12.575Z,1012.63
2017-04-24T03:29:18.079Z,1012.63
2017-04-24T03:30:06.027Z,1012.64
2017-04-24T03:30:54.025Z,1012.64
2017-04-24T03:31:41.931Z,1012.62
2017-04-24T03:32:36.875Z,1012.58
2017-04-24T03:33:25.434Z,1012.57
2017-04-24T03:34:12.923Z,1012.56
2017-04-24T03:34:55.841Z,1012.54
2017-04-24T03:35:44.419Z,1012.54
2017-04-24T03:36:32.893Z,1012.55
2017-04-24T03:37:26.432Z,1012.52
2017-04-24T03:38:32.362Z,1012.52
2017-04-24T03:39:26.330Z,1012.48
2017-04-24T03:40:20.257Z,1012.50
2017-04-24T03:41:20.153Z,1012.49
2017-04-24T03:42:15.159Z,1012.48
2017-04-24T03:43:09.646Z,1012.45
2017-04-24T03:44:04.142Z,1012.41
2017-04-24T03:45:03.668Z,1012.42
2017-04-24T03:45:58.633Z,1012.39
2017-04-24T03:46:58.153Z,1012.38
2017-04-24T03:47:58.048Z,1012.39
2017-04-24T03:48:52.035Z,1012.35
2017-04-24T03:49:45.998Z,1012.36
2017-04-24T03:50:45.956Z,1012.30
2017-04-24T03:51:39.860Z,1012.32
2017-04-24T03:52:39.803Z,1012.34
2017-04-24T03:53:33.759Z,1012.31
2017-04-24T03:54:27.744Z,1012.28
2017-04-24T03:55:16.646Z,1012.27
2017-04-24T03:56:05.186Z,1012.27
2017-04-24T03:56:58.713Z,1012.28
2017-04-24T03:57:46.663Z,1012.25
2017-04-24T03:58:41.596Z,1012.25
2017-04-24T03:59:35.130Z,1012.24
2017-04-24T04:00:35.033Z,1012.24
2017-04-24T04:01:24.036Z,1012.22
2017-04-24T04:02:18.516Z,1012.17
2017-04-24T04:03:12.048Z,1012.17
2017-04-24T04:04:01.031Z,1012.19
2017-04-24T04:04:48.490Z,1012.17
2017-04-24T04:05:31.498Z,1012.15
2017-04-24T04:06:20.022Z,1012.16
2017-04-24T04:07:13.502Z,1012.17
2017-04-24T04:08:13.478Z,1012.18
2017-04-24T04:09:07.442Z,1012.16
2017-04-24T04:10:08.322Z,1012.17
2017-04-24T04:11:01.855Z,1012.14
2017-04-24T04:11:55.894Z,1012.10
2017-04-24T04:12:44.750Z,1012.09
2017-04-24T04:13:44.216Z,1012.11
2017-04-24T04:14:39.514Z,1012.08
2017-04-24T04:15:32.773Z,1012.06
2017-04-24T04:16:32.619Z,1012.03
2017-04-24T04:17:21.636Z,1012.04
2017-04-24T04:18:16.093Z,1012.02
2017-04-24T04:19:15.643Z,1012.01
2017-04-24T04:20:15.606Z,1012.00
2017-04-24T04:21:10.968Z,1011.97
2017-04-24T04:22:10.070Z,1011.98
2017-04-24T04:23:03.977Z,1011.95
2017-04-24T04:24:03.957Z,1011.98
2017-04-24T04:24:57.895Z,1011.96
2017-04-24T04:25:52.856Z,1011.94
2017-04-24T04:26:52.296Z,1011.96
2017-04-24T04:27:47.301Z,1011.96
2017-04-24T04:28:46.823Z,1011.93
2017-04-24T04:29:40.739Z,1011.92
2017-04-24T04:30:34.675Z,1011.92
2017-04-24T04:31:23.620Z,1011.86
2017-04-24T04:32:29.499Z,1011.86
2017-04-24T04:33:18.151Z,1011.80
2017-04-24T04:34:06.633Z,1011.83
2017-04-24T04:35:06.131Z,1011.75
2017-04-24T04:36:00.066Z,1011.81
2017-04-24T04:36:55.046Z,1011.85
2017-04-24T04:37:54.565Z,1011.82
2017-04-24T04:38:48.529Z,1011.76
2017-04-24T04:39:48.453Z,1011.80
2017-04-24T04:40:36.399Z,1011.75
2017-04-24T04:41:30.349Z,1011.75
2017-04-24T04:42:24.304Z,1011.80
2017-04-24T04:43:24.219Z,1011.74
2017-04-24T04:44:24.136Z,1011.77
2017-04-24T04:45:19.118Z,1011.73
2017-04-24T04:46:14.092Z,1011.76
2017-04-24T04:47:08.139Z,1011.73
2017-04-24T04:48:08.649Z,1011.77
2017-04-24T04:49:03.140Z,1011.74
2017-04-24T04:49:57.721Z,1011.77
2017-04-24T04:50:57.171Z,1011.75
2017-04-24T04:51:57.160Z,1011.75
2017-04-24T04:52:46.079Z,1011.68
2017-04-24T04:53:51.607Z,1011.70
2017-04-24T04:54:40.520Z,1011.70
2017-04-24T04:55:35.050Z,1011.70
2017-04-24T04:56:29.011Z,1011.73
2017-04-24T04:57:23.553Z,1011.67
2017-04-24T04:58:17.024Z,1011.71
2017-04-24T04:59:11.037Z,1011.72
2017-04-24T05:00:05.966Z,1011.71
2017-04-24T05:01:11.869Z,1011.66
2017-04-24T05:02:05.430Z,1011.65
2017-04-24T05:03:00.341Z,1011.67
2017-04-24T05:03:54.853Z,1011.71
2017-04-24T05:04:43.405Z,1011.64
2017-04-24T05:05:43.914Z,1011.62
2017-04-24T05:06:43.796Z,1011.63
2017-04-24T05:07:38.306Z,1011.60
2017-04-24T05:08:32.852Z,1011.64
2017-04-24T05:09:32.339Z,1011.62
2017-04-24T05:10:26.308Z,1011.65
2017-04-24T05:11:21.247Z,1011.60
2017-04-24T05:12:20.791Z,1011.61
2017-04-24T05:13:15.713Z,1011.64
2017-04-24T05:14:15.231Z,1011.64
2017-04-24T05:15:09.213Z,1011.62
2017-04-24T05:15:52.370Z,1011.63
2017-04-24T05:16:45.703Z,1011.61
2017-04-24T05:17:39.660Z,1011.61
2017-04-24T05:18:33.586Z,1011.59
2017-04-24T05:19:22.564Z,1011.59
2017-04-24T05:20:22.039Z,1011.58
2017-04-24T05:21:22.021Z,1011.57
2017-04-24T05:22:16.951Z,1011.60
2017-04-24T05:23:11.430Z,1011.57
2017-04-24T05:23:59.019Z,1011.56
2017-04-24T05:24:58.956Z,1011.58
2017-04-24T05:25:53.917Z,1011.57
2017-04-24T05:26:53.432Z,1011.61
2017-04-24T05:27:53.357Z,1011.51
2017-04-24T05:28:47.335Z,1011.57
2017-04-24T05:29:47.281Z,1011.55
2017-04-24T05:30:36.201Z,1011.54
2017-04-24T05:31:36.739Z,1011.54
2017-04-24T05:32:30.556Z,1011.54
2017-04-24T05:33:19.172Z,1011.56
2017-04-24T05:34:12.727Z,1011.56
2017-04-24T05:35:01.641Z,1011.53
2017-04-24T05:35:55.202Z,1011.56
2017-04-24T05:36:44.110Z,1011.52
2017-04-24T05:37:43.659Z,1011.49
2017-04-24T05:38:44.615Z,1011.49
2017-04-24T05:39:44.127Z,1011.48
2017-04-24T05:40:38.057Z,1011.47
2017-04-24T05:41:38.012Z,1011.46
2017-04-24T05:42:37.941Z,1011.45
2017-04-24T05:43:37.988Z,1011.45
2017-04-24T05:44:37.816Z,1011.45
2017-04-24T05:45:37.847Z,1011.43
2017-04-24T05:46:26.777Z,1011.43
2017-04-24T05:47:15.290Z,1011.38
2017-04-24T05:48:02.858Z,1011.42
2017-04-24T05:48:45.840Z,1011.35
2017-04-24T05:49:33.330Z,1011.36
2017-04-24T05:50:21.289Z,1011.36
2017-04-24T05:51:04.263Z,1011.37
2017-04-24T05:51:57.733Z,1011.32
2017-04-24T05:52:51.678Z,1011.31
2017-04-24T05:53:39.677Z,1011.33
2017-04-24T05:54:34.690Z,1011.29
2017-04-24T05:55:29.144Z,1011.31
2017-04-24T05:56:23.653Z,1011.26
2017-04-24T05:57:23.178Z,1011.32
2017-04-24T05:58:12.126Z,1011.34
2017-04-24T05:59:06.650Z,1011.33
2017-04-24T06:00:06.352Z,1011.29
2017-04-24T06:01:01.242Z,1011.33
2017-04-24T06:02:00.994Z,1011.29
2017-04-24T06:02:49.567Z,1011.29
2017-04-24T06:03:43.112Z,1011.27
2017-04-24T06:04:44.061Z,1011.29
2017-04-24T06:05:31.630Z,1011.24
2017-04-24T06:06:19.540Z,1011.24
2017-04-24T06:07:08.500Z,1011.19
2017-04-24T06:07:57.018Z,1011.22
2017-04-24T06:08:50.545Z,1011.19
2017-04-24T06:09:44.526Z,1011.23
2017-04-24T06:10:39.468Z,1011.19
2017-04-24T06:11:38.949Z,1011.14
2017-04-24T06:12:32.940Z,1011.13
2017-04-24T06:13:32.833Z,1011.18
2017-04-24T06:14:21.871Z,1011.17
2017-04-24T06:15:27.331Z,1011.14
2017-04-24T06:16:21.245Z,1011.14
2017-04-24T06:17:22.285Z,1011.12
2017-04-24T06:18:21.750Z,1011.11
2017-04-24T06:19:09.698Z,1011.08
2017-04-24T06:19:52.639Z,1011.08
2017-04-24T06:20:41.208Z,1011.11
2017-04-24T06:21:29.750Z,1011.06
2017-04-24T06:22:29.235Z,1011.04
2017-04-24T06:23:18.158Z,1011.07
2017-04-24T06:24:17.753Z,1011.07
2017-04-24T06:25:00.661Z,1011.08
2017-04-24T06:25:54.179Z,1011.04
2017-04-24T06:26:55.133Z,1011.00
2017-04-24T06:27:43.713Z,1010.93
2017-04-24T06:28:37.173Z,1010.92
2017-04-24T06:29:38.137Z,1010.96
2017-04-24T06:30:31.671Z,1010.95
2017-04-24T06:31:26.620Z,1011.02
2017-04-24T06:32:15.168Z,1010.99
2017-04-24T06:33:09.632Z,1011.04
2017-04-24T06:33:58.222Z,1011.05
2017-04-24T06:34:52.737Z,1011.05
2017-04-24T06:35:41.226Z,1011.03
2017-04-24T06:36:35.773Z,1011.07
2017-04-24T06:37:30.321Z,1011.01
2017-04-24T06:38:23.779Z,1011.00
2017-04-24T06:39:23.756Z,1011.03
2017-04-24T06:40:11.721Z,1011.02
2017-04-24T06:41:06.651Z,1011.01
2017-04-24T06:42:00.176Z,1011.00
2017-04-24T06:43:00.182Z,1011.02
2017-04-24T06:43:54.124Z,1010.97
2017-04-24T06:44:43.116Z,1010.96
2017-04-24T06:45:37.553Z,1010.92
2017-04-24T06:46:31.113Z,1010.91
2017-04-24T06:47:31.041Z,1010.92
2017-04-24T06:48:20.039Z,1010.93
2017-04-24T06:49:19.565Z,1010.95
2017-04-24T06:50:13.502Z,1010.94
2017-04-24T06:51:07.444Z,1010.91
2017-04-24T06:51:56.370Z,1010.91
2017-04-24T06:52:44.974Z,1010.90
2017-04-24T06:53:38.573Z,1010.84
2017-04-24T06:54:32.429Z,1010.84
2017-04-24T06:55:21.353Z,1010.85
2017-04-24T06:56:20.859Z,1010.84
2017-04-24T06:57:09.819Z,1010.84
2017-04-24T06:58:04.351Z,1010.81
2017-04-24T06:59:10.133Z,1010.80
2017-04-24T06:59:58.843Z,1010.73
2017-04-24T07:00:52.349Z,1010.80
2017-04-24T07:01:47.497Z,1010.73
2017-04-24T07:02:35.822Z,1010.72
2017-04-24T07:03:30.360Z,1010.73
2017-04-24T07:04:24.265Z,1010.67
2017-04-24T07:05:12.873Z,1010.71
2017-04-24T07:06:06.377Z,1010.71
2017-04-24T07:06:55.313Z,1010.71
2017-04-24T07:07:43.867Z,1010.69
2017-04-24T07:08:38.412Z,1010.69
2017-04-24T07:09:33.424Z,1010.68
2017-04-24T07:10:27.417Z,1010.65
2017-04-24T07:11:16.415Z,1010.65
2017-04-24T07:12:09.465Z,1010.65
2017-04-24T07:13:03.433Z,1010.60
2017-04-24T07:13:57.435Z,1010.63
2017-04-24T07:14:45.652Z,1010.61
2017-04-24T07:15:33.345Z,1010.55
2017-04-24T07:16:33.261Z,1010.59
2017-04-24T07:17:22.299Z,1010.53
2017-04-24T07:18:10.742Z,1010.54
2017-04-24T07:18:59.318Z,1010.51
2017-04-24T07:19:48.159Z,1010.51
2017-04-24T07:20:41.325Z,1010.52
2017-04-24T07:21:35.375Z,1010.53
2017-04-24T07:22:24.278Z,1010.55
2017-04-24T07:23:24.839Z,1010.46
2017-04-24T07:24:12.326Z,1010.44
2017-04-24T07:25:01.352Z,1010.37
2017-04-24T07:25:49.812Z,1010.41
2017-04-24T07:26:38.353Z,1010.48
2017-04-24T07:27:26.854Z,1010.44
2017-04-24T07:28:20.451Z,1010.42
2017-04-24T07:29:14.363Z,1010.42
2017-04-24T07:30:09.377Z,1010.33
2017-04-24T07:31:03.834Z,1010.43
2017-04-24T07:31:57.368Z,1010.41
2017-04-24T07:32:51.342Z,1010.40
2017-04-24T07:33:40.290Z,1010.39
2017-04-24T07:34:27.831Z,1010.38
2017-04-24T07:35:22.767Z,1010.40
2017-04-24T07:36:10.315Z,1010.38
2017-04-24T07:37:10.253Z,1010.40
2017-04-24T07:37:58.189Z,1010.34
2017-04-24T07:38:46.175Z,1010.34
2017-04-24T07:39:35.091Z,1010.37
2017-04-24T07:40:34.697Z,1010.27
2017-04-24T07:41:18.087Z,1010.33
2017-04-24T07:42:11.158Z,1010.23
2017-04-24T07:43:05.091Z,1010.27
2017-04-24T07:43:54.047Z,1010.26
2017-04-24T07:44:41.625Z,1010.24
2017-04-24T07:45:29.554Z,1010.20
2017-04-24T07:46:19.004Z,1010.18
2017-04-24T07:47:07.062Z,1010.17
2017-04-24T07:48:00.610Z,1010.17
2017-04-24T07:48:48.569Z,1010.16
2017-04-24T07:49:43.531Z,1010.13
2017-04-24T07:50:32.045Z,1010.13
2017-04-24T07:51:20.523Z,1010.13
2017-04-24T07:52:14.106Z,1010.16
2017-04-24T07:53:08.025Z,1010.09
2017-04-24T07:53:57.048Z,1010.05
2017-04-24T07:54:51.541Z,1010.02
2017-04-24T07:55:51.073Z,1010.03
2017-04-24T07:56:45.604Z,1010.00
2017-04-24T07:57:33.033Z,1010.03
2017-04-24T07:58:27.971Z,1010.08
2017-04-24T07:59:15.520Z,1010.03
2017-04-24T08:00:09.477Z,1010.12
2017-04-24T08:00:58.409Z,1010.07
2017-04-24T08:01:53.253Z,1010.04
2017-04-24T08:02:40.462Z,1010.02
2017-04-24T08:03:23.449Z,1010.04
2017-04-24T08:04:17.934Z,1009.98
2017-04-24T08:05:12.533Z,1009.95
2017-04-24T08:06:00.028Z,1010.00
2017-04-24T08:06:49.070Z,1010.04
2017-04-24T08:07:43.530Z,1010.07
2017-04-24T08:08:44.039Z,1009.97
2017-04-24T08:09:43.511Z,1009.90
2017-04-24T08:10:37.505Z,1009.92
2017-04-24T08:11:26.435Z,1009.90
2017-04-24T08:12:20.046Z,1009.93
2017-04-24T08:13:15.030Z,1009.92
2017-04-24T08:14:02.530Z,1009.86
2017-04-24T08:14:56.459Z,1009.86
2017-04-24T08:15:50.403Z,1009.85
2017-04-24T08:16:44.408Z,1009.93
2017-04-24T08:17:33.629Z,1009.78
2017-04-24T08:18:32.847Z,1009.87
2017-04-24T08:19:21.881Z,1009.83
2017-04-24T08:20:16.395Z,1009.90
2017-04-24T08:21:10.889Z,1009.88
2017-04-24T08:22:05.419Z,1009.98
2017-04-24T08:22:59.336Z,1009.88
2017-04-24T08:23:53.973Z,1009.84
2017-04-24T08:24:47.459Z,1009.76
2017-04-24T08:25:42.416Z,1009.72
2017-04-24T08:26:29.935Z,1009.69
2017-04-24T08:27:18.924Z,1009.68
2017-04-24T08:28:07.822Z,1009.77
2017-04-24T08:28:56.293Z,1009.75
2017-04-24T08:29:49.523Z,1009.76
2017-04-24T08:30:49.498Z,1009.69
2017-04-24T08:31:43.428Z,1009.74
2017-04-24T08:32:32.784Z,1009.73
2017-04-24T08:33:20.967Z,1009.70
2017-04-24T08:34:14.561Z,1009.68
2017-04-24T08:35:15.476Z,1009.82
2017-04-24T08:36:04.002Z,1009.62
2017-04-24T08:36:58.537Z,1009.66
2017-04-24T08:37:53.154Z,1009.66
2017-04-24T08:38:52.685Z,1009.58
2017-04-24T08:39:41.558Z,1009.63
2017-04-24T08:40:36.117Z,1009.47
2017-04-24T08:41:24.551Z,1009.52
2017-04-24T08:42:12.110Z,1009.69
2017-04-24T08:43:06.130Z,1009.64
2017-04-24T08:43:49.411Z,1009.41
2017-04-24T08:44:43.648Z,1009.37
2017-04-24T08:45:43.198Z,1009.30
2017-04-24T08:46:32.228Z,1009.36
2017-04-24T08:47:31.643Z,1009.40
2017-04-24T08:48:20.677Z,1009.32
2017-04-24T08:49:14.320Z,1009.51
2017-04-24T08:50:09.506Z,1009.46
2017-04-24T08:50:57.688Z,1009.50
2017-04-24T08:51:46.178Z,1009.43
2017-04-24T08:52:40.762Z,1009.37
2017-04-24T08:53:34.694Z,1009.49
2017-04-24T08:54:23.561Z,1009.42
2017-04-24T08:55:18.022Z,1009.20
2017-04-24T08:56:12.299Z,1009.11
2017-04-24T08:57:06.170Z,1009.25
2017-04-24T08:57:49.111Z,1009.28
2017-04-24T08:58:42.356Z,1009.13
2017-04-24T08:59:31.321Z,1009.03
2017-04-24T09:00:24.931Z,1008.87
2017-04-24T09:01:19.330Z,1009.05
2017-04-24T09:02:07.982Z,1009.08
2017-04-24T09:02:56.383Z,1009.05
2017-04-24T09:03:50.930Z,1009.05
2017-04-24T09:04:45.436Z,1009.05
2017-04-24T09:05:33.363Z,1009.00
2017-04-24T09:06:28.011Z,1008.95
2017-04-24T09:07:16.562Z,1008.87
2017-04-24T09:08:11.060Z,1008.89
2017-04-24T09:08:58.569Z,1008.94
2017-04-24T09:09:52.929Z,1008.87
2017-04-24T09:10:41.614Z,1008.90
2017-04-24T09:11:35.047Z,1008.93
2017-04-24T09:12:30.024Z,1008.90
2017-04-24T09:13:18.582Z,1008.96
2017-04-24T09:14:18.568Z,1008.94
2017-04-24T09:15:06.108Z,1009.00
2017-04-24T09:15:55.503Z,1008.99
2017-04-24T09:16:48.610Z,1009.05
2017-04-24T09:17:37.600Z,1008.99
2017-04-24T09:18:25.116Z,1008.86
2017-04-24T09:19:19.095Z,1008.92
2017-04-24T09:20:13.406Z,1008.90
2017-04-24T09:21:08.662Z,1008.76
2017-04-24T09:21:55.566Z,1008.81
2017-04-24T09:22:44.510Z,1008.72
2017-04-24T09:23:38.139Z,1008.72
2017-04-24T09:24:27.062Z,1008.75
2017-04-24T09:25:20.587Z,1008.69
2017-04-24T09:26:08.908Z,1008.72
2017-04-24T09:27:02.690Z,1008.77
2017-04-24T09:27:56.520Z,1008.55
2017-04-24T09:28:50.511Z,1008.56
2017-04-24T09:29:44.458Z,1008.66
2017-04-24T09:30:39.441Z,1008.58
2017-04-24T09:31:33.328Z,1008.56
2017-04-24T09:32:20.992Z,1008.61
2017-04-24T09:33:08.997Z,1008.62
2017-04-24T09:34:02.927Z,1008.57
2017-04-24T09:34:50.896Z,1008.54
2017-04-24T09:35:38.862Z,1008.54
2017-04-24T09:36:33.287Z,1008.64
2017-04-24T09:37:20.842Z,1008.54
2017-04-24T09:38:09.761Z,1008.55
2017-04-24T09:38:57.345Z,1008.51
2017-04-24T09:39:46.408Z,1008.55
2017-04-24T09:40:39.851Z,1008.48
2017-04-24T09:41:27.854Z,1008.56
2017-04-24T09:42:16.225Z,1008.50
2017-04-24T09:43:04.027Z,1008.54
2017-04-24T09:43:58.075Z,1008.53
2017-04-24T09:44:52.973Z,1008.46
2017-04-24T09:45:46.266Z,1008.45
2017-04-24T09:46:34.277Z,1008.46
2017-04-24T09:47:22.315Z,1008.51
2017-04-24T09:48:11.243Z,1008.53
2017-04-24T09:49:05.027Z,1008.35
2017-04-24T09:49:58.976Z,1008.37
2017-04-24T09:50:47.904Z,1008.46
2017-04-24T09:51:42.216Z,1008.36
2017-04-24T09:52:30.864Z,1008.39
2017-04-24T09:53:24.369Z,1008.35
2017-04-24T09:54:18.332Z,1008.44
2017-04-24T09:55:06.283Z,1008.25
2017-04-24T09:56:00.234Z,1008.47
2017-04-24T09:56:49.634Z,1008.44
2017-04-24T09:57:44.028Z,1008.54
2017-04-24T09:58:38.347Z,1008.35
2017-04-24T09:59:31.962Z,1008.34
2017-04-24T10:00:32.236Z,1008.39
2017-04-24T10:01:32.087Z,1008.47
2017-04-24T10:02:21.093Z,1008.48
2017-04-24T10:03:14.521Z,1008.44
2017-04-24T10:04:08.322Z,1008.46
2017-04-24T10:04:56.412Z,1008.36
2017-04-24T10:05:50.336Z,1008.46
2017-04-24T10:06:44.236Z,1008.41
2017-04-24T10:07:39.215Z,1008.47
2017-04-24T10:08:38.980Z,1008.37
2017-04-24T10:09:27.693Z,1008.17
2017-04-24T10:10:21.522Z,1008.30
2017-04-24T10:11:10.207Z,1008.24
2017-04-24T10:12:10.006Z,1008.39
2017-04-24T10:13:04.020Z,1008.28
2017-04-24T10:14:03.981Z,1008.31
2017-04-24T10:14:53.003Z,1008.42
2017-04-24T10:15:46.633Z,1008.36
2017-04-24T10:16:41.343Z,1008.37
2017-04-24T10:17:28.962Z,1008.40
2017-04-24T10:18:18.033Z,1008.45
2017-04-24T10:19:12.724Z,1008.36
2017-04-24T10:20:00.811Z,1008.24
2017-04-24T10:20:49.744Z,1008.30
2017-04-24T10:21:49.071Z,1008.12
2017-04-24T10:22:37.277Z,1008.22
2017-04-24T10:23:37.183Z,1008.25
2017-04-24T10:24:32.250Z,1008.11
2017-04-24T10:25:20.371Z,1008.33
2017-04-24T10:26:20.367Z,1008.35
2017-04-24T10:27:14.289Z,1008.36
2017-04-24T10:28:09.200Z,1008.19
2017-04-24T10:29:03.561Z,1008.28
2017-04-24T10:29:58.309Z,1008.40
2017-04-24T10:30:51.513Z,1008.19
2017-04-24T10:31:39.649Z,1008.18
2017-04-24T10:32:27.557Z,1008.12
2017-04-24T10:33:16.614Z,1008.03
2017-04-24T10:34:10.992Z,1008.16
2017-04-24T10:35:04.728Z,1008.25
2017-04-24T10:35:52.508Z,1008.09
2017-04-24T10:36:47.050Z,1008.09
2017-04-24T10:37:34.811Z,1008.12
2017-04-24T10:38:23.451Z,1008.29
2017-04-24T10:39:12.219Z,1008.05
2017-04-24T10:40:00.745Z,1008.14
2017-04-24T10:40:54.465Z,1008.17
2017-04-24T10:41:42.469Z,1008.11
2017-04-24T10:42:25.678Z,1008.21
2017-04-24T10:43:13.827Z,1008.01
2017-04-24T10:44:02.142Z,1007.84
2017-04-24T10:44:56.862Z,1007.85
2017-04-24T10:45:45.286Z,1007.96
2017-04-24T10:46:39.167Z,1007.98